Strona główna
METAR-TAF:

METAR-TAF

Lotnisko :

Port lotniczy Albrook "Marcos A. Gelabert"

Panama, Panama

Szerokość geograficzna: 08-59N, Długość geograficzna: 079-31W, wysokość: 13 m

Aktualna obserwacja pogody

Raport powstał 3 godziny i 46 minut temu, godzina 03:00 UTC
Wiatr 3 kt od zachodnio-północny zachód, zmienny między zachód i północno-północny zachód
Temperatura 25°C
Wilgotność 89%
Ciśnienie 1012 hPa
Widzialność 10 km lub więcej
Mało chmury na wysokości 1800 ft, Cumulonimbus.
Rozproszone chmury na wysokości 9000 ft

METAR: MPMG 150300Z 30003KT 270V330 9999 FEW018CB SCT090 25/23 Q1012 NOSIG

czas: 01:46 (06:46 UTC)

Prognoza

Raport powstał 7 godziny i 46 minut temu, godzina 23:00 UTC
Prognoza ważna od 15 godzina 00 UTC do 15 godzina 12 UTC
Wiatr 6 kt od północny zachód
Widzialność 10 km lub więcej
Rozproszone chmury na wysokości 1800 ft
Rozproszone chmury na wysokości 8000 ft

TAF: MPMG 142300Z 1500/1512 31006KT 9999 SCT018 SCT080

Obserwacja i prognoza pogody dla ponad 4000 lotnisk (raport METAR i TAF).

Dostępne stacje oznaczono żółtymi i czerwonymi punktami na mapie.

Najedź kursorem aby zobaczyć nazwę stacji.

Kliknij aby zobaczyć obserwacje i prognozy pogody.

Aby zmienić mapę: kliknij na zielony przycisk z czarnym krzyżykiem, aby powiększyć; na zielony przycisk z myślnikiem, aby pomniejszyć; na zielone strzałki, aby przejść do map sąsiednich.


METAR-TAF: